createdAt,value
2023-02-19T00:01:01.560Z,12.26
2023-02-19T00:04:12.198Z,12.22
2023-02-19T00:07:14.686Z,12.09
2023-02-19T00:10:17.279Z,12.13
2023-02-19T00:13:19.642Z,12.14
2023-02-19T00:16:25.204Z,12.05
2023-02-19T00:19:28.154Z,12.07
2023-02-19T00:22:30.797Z,12.04
2023-02-19T00:25:37.797Z,11.90
2023-02-19T00:28:40.568Z,11.86
2023-02-19T00:31:43.901Z,12.00
2023-02-19T00:34:46.569Z,11.85
2023-02-19T00:37:48.918Z,11.96
2023-02-19T00:40:51.604Z,11.96
2023-02-19T00:44:02.478Z,11.97
2023-02-19T00:47:05.131Z,11.96
2023-02-19T00:50:07.537Z,11.83
2023-02-19T00:53:10.483Z,11.83
2023-02-19T00:56:12.972Z,11.96
2023-02-19T00:59:15.623Z,11.96
2023-02-19T01:02:17.930Z,11.79
2023-02-19T01:05:20.567Z,11.83
2023-02-19T01:08:23.039Z,11.92
2023-02-19T01:11:25.986Z,11.95
2023-02-19T01:14:28.481Z,11.83
2023-02-19T01:17:31.231Z,11.86
2023-02-19T01:20:33.693Z,11.84
2023-02-19T01:23:36.629Z,11.85
2023-02-19T01:26:39.149Z,12.00
2023-02-19T01:29:42.571Z,11.91
2023-02-19T01:32:45.134Z,12.07
2023-02-19T01:35:47.836Z,12.06
2023-02-19T01:38:50.559Z,11.99
2023-02-19T01:41:53.211Z,11.99
2023-02-19T01:45:20.750Z,12.11
2023-02-19T01:48:27.473Z,12.13
2023-02-19T01:51:32.861Z,12.10
2023-02-19T01:54:40.392Z,11.95
2023-02-19T01:57:46.961Z,11.93
2023-02-19T02:00:52.281Z,12.01
2023-02-19T02:03:55.082Z,12.00
2023-02-19T02:06:59.250Z,11.97
2023-02-19T02:10:21.158Z,11.82
2023-02-19T02:13:23.970Z,11.97
2023-02-19T02:16:33.010Z,11.83
2023-02-19T02:20:03.632Z,11.90
2023-02-19T02:23:10.760Z,11.93
2023-02-19T02:26:38.826Z,11.96
2023-02-19T02:30:12.874Z,11.96
2023-02-19T02:33:28.580Z,11.99
2023-02-19T02:36:38.582Z,11.96
2023-02-19T02:39:44.679Z,11.80
2023-02-19T02:42:47.891Z,11.94
2023-02-19T02:45:51.194Z,11.79
2023-02-19T02:49:00.554Z,11.95
2023-02-19T02:52:23.623Z,11.92
2023-02-19T02:55:29.795Z,11.93
2023-02-19T02:58:34.049Z,11.91
2023-02-19T03:02:14.139Z,11.80
2023-02-19T03:05:41.517Z,11.82
2023-02-19T03:08:59.233Z,12.01
2023-02-19T03:12:24.243Z,11.99
2023-02-19T03:16:11.715Z,12.02
2023-02-19T03:19:19.380Z,12.00
2023-02-19T03:22:33.241Z,11.89
2023-02-19T03:25:56.445Z,11.97
2023-02-19T03:29:21.654Z,11.83
2023-02-19T03:32:36.630Z,11.87
2023-02-19T03:35:46.727Z,11.96
2023-02-19T03:38:56.898Z,11.96
2023-02-19T03:42:06.334Z,11.85
2023-02-19T03:45:24.193Z,12.02
2023-02-19T03:48:53.642Z,11.97
2023-02-19T03:52:23.482Z,11.79
2023-02-19T03:55:46.205Z,11.78
2023-02-19T03:58:59.218Z,11.89
2023-02-19T04:02:14.010Z,11.82
2023-02-19T04:05:21.397Z,11.86
2023-02-19T04:08:25.855Z,11.72
2023-02-19T04:11:32.208Z,11.67
2023-02-19T04:15:00.785Z,11.84
2023-02-19T04:18:08.508Z,11.87
2023-02-19T04:21:11.845Z,11.87
2023-02-19T04:24:21.817Z,11.86
2023-02-19T04:27:24.348Z,11.77
2023-02-19T04:30:27.223Z,11.83
2023-02-19T04:33:29.608Z,11.71
2023-02-19T04:36:33.374Z,11.81
2023-02-19T04:39:35.817Z,11.73
2023-02-19T04:42:38.513Z,11.69
2023-02-19T04:45:40.779Z,11.71
2023-02-19T04:48:43.420Z,11.67
2023-02-19T04:51:45.726Z,11.55
2023-02-19T04:54:49.100Z,11.52
2023-02-19T04:57:51.494Z,11.63
2023-02-19T05:00:54.282Z,11.49
2023-02-19T05:03:56.586Z,11.48
2023-02-19T05:06:59.189Z,11.48
2023-02-19T05:10:01.493Z,11.63
2023-02-19T05:13:04.096Z,11.62
2023-02-19T05:16:10.796Z,11.48
2023-02-19T05:19:13.691Z,11.61
2023-02-19T05:22:16.068Z,11.61
2023-02-19T05:25:18.748Z,11.62
2023-02-19T05:28:28.522Z,11.66
2023-02-19T05:31:33.737Z,11.63
2023-02-19T05:34:36.112Z,11.61
2023-02-19T05:37:38.744Z,11.49
2023-02-19T05:40:41.482Z,11.59
2023-02-19T05:43:46.036Z,11.57
2023-02-19T05:46:48.338Z,11.44
2023-02-19T05:49:50.989Z,11.49
2023-02-19T05:52:53.370Z,11.54
2023-02-19T05:55:55.985Z,11.54
2023-02-19T05:58:59.365Z,11.50
2023-02-19T06:02:01.916Z,11.55
2023-02-19T06:05:05.129Z,11.49
2023-02-19T06:08:07.422Z,11.35
2023-02-19T06:11:10.769Z,11.45
2023-02-19T06:14:14.570Z,11.30
2023-02-19T06:17:17.350Z,11.14
2023-02-19T06:20:19.742Z,11.13
2023-02-19T06:23:22.309Z,10.89
2023-02-19T06:26:25.233Z,10.79
2023-02-19T06:29:27.950Z,10.76
2023-02-19T06:32:30.321Z,10.84
2023-02-19T06:35:32.894Z,10.74
2023-02-19T06:38:35.634Z,10.73
2023-02-19T06:41:38.258Z,10.72
2023-02-19T06:44:43.263Z,10.60
2023-02-19T06:47:45.851Z,10.57
2023-02-19T06:50:48.246Z,10.41
2023-02-19T06:53:53.310Z,10.40
2023-02-19T06:56:58.935Z,10.42
2023-02-19T07:00:01.542Z,10.29
2023-02-19T07:03:05.492Z,10.23
2023-02-19T07:06:08.501Z,10.22
2023-02-19T07:09:11.839Z,10.14
2023-02-19T07:12:14.612Z,10.09
2023-02-19T07:15:17.149Z,10.00
2023-02-19T07:18:19.935Z,10.02
2023-02-19T07:21:22.331Z,9.67
2023-02-19T07:24:25.312Z,9.66
2023-02-19T07:27:30.886Z,9.75
2023-02-19T07:30:36.849Z,9.63
2023-02-19T07:33:39.280Z,9.66
2023-02-19T07:36:41.913Z,9.47
2023-02-19T07:39:44.283Z,9.58
2023-02-19T07:42:46.961Z,9.68
2023-02-19T07:45:49.394Z,9.64
2023-02-19T07:48:52.075Z,9.69
2023-02-19T07:51:54.358Z,9.42
2023-02-19T07:55:00.216Z,9.44
2023-02-19T07:58:04.263Z,9.49
2023-02-19T08:01:15.081Z,9.49
2023-02-19T08:04:17.873Z,9.59
2023-02-19T08:07:20.333Z,9.68
2023-02-19T08:10:47.596Z,9.51
2023-02-19T08:13:53.385Z,9.67
2023-02-19T08:16:56.207Z,9.62
2023-02-19T08:20:00.567Z,9.65
2023-02-19T08:23:03.583Z,9.60
2023-02-19T08:26:06.647Z,9.70
2023-02-19T08:29:09.292Z,9.68
2023-02-19T08:32:11.689Z,9.59
2023-02-19T08:35:14.357Z,9.71
2023-02-19T08:38:17.186Z,9.74
2023-02-19T08:41:21.259Z,9.74
2023-02-19T08:44:23.684Z,9.81
2023-02-19T08:47:26.322Z,10.02
2023-02-19T08:50:37.092Z,10.20
2023-02-19T08:53:44.743Z,10.41
2023-02-19T08:56:47.424Z,10.43
2023-02-19T08:59:50.133Z,10.65
2023-02-19T09:02:52.556Z,10.71
2023-02-19T09:06:10.029Z,10.66
2023-02-19T09:09:15.287Z,10.91
2023-02-19T09:12:18.028Z,11.06
2023-02-19T09:15:22.705Z,11.01
2023-02-19T09:18:26.161Z,11.06
2023-02-19T09:21:28.652Z,11.09
2023-02-19T09:24:34.452Z,11.16
2023-02-19T09:27:36.844Z,11.15
2023-02-19T09:30:39.618Z,11.15
2023-02-19T09:33:43.814Z,11.19
2023-02-19T09:36:49.393Z,11.36
2023-02-19T09:40:08.331Z,11.39
2023-02-19T09:43:38.546Z,11.42
2023-02-19T09:46:52.896Z,11.46
2023-02-19T09:50:07.268Z,11.56
2023-02-19T09:53:25.409Z,11.75
2023-02-19T09:56:49.565Z,12.04
2023-02-19T09:59:57.283Z,12.67
2023-02-19T10:03:11.097Z,12.83
2023-02-19T10:06:24.220Z,12.76
2023-02-19T10:09:28.978Z,13.06
2023-02-19T10:15:58.381Z,14.44
2023-02-19T10:19:01.146Z,15.21
2023-02-19T10:22:07.476Z,15.58
2023-02-19T10:25:16.729Z,15.78
2023-02-19T10:28:22.496Z,16.18
2023-02-19T10:31:26.057Z,16.70
2023-02-19T10:34:28.594Z,17.22
2023-02-19T10:37:32.203Z,17.28
2023-02-19T10:40:34.802Z,17.04
2023-02-19T10:43:42.690Z,16.44
2023-02-19T10:46:48.440Z,16.30
2023-02-19T10:49:53.275Z,16.08
2023-02-19T10:52:57.747Z,16.23
2023-02-19T10:56:26.784Z,16.43
2023-02-19T10:59:29.439Z,16.34
2023-02-19T11:02:32.270Z,16.62
2023-02-19T11:05:38.138Z,17.04
2023-02-19T11:08:43.749Z,17.35
2023-02-19T11:11:52.380Z,17.39
2023-02-19T11:14:55.464Z,17.85
2023-02-19T11:18:12.969Z,18.26
2023-02-19T11:21:28.742Z,18.64
2023-02-19T11:24:37.601Z,18.86
2023-02-19T11:28:28.201Z,19.17
2023-02-19T11:31:32.512Z,19.34
2023-02-19T11:34:35.673Z,18.91
2023-02-19T11:37:54.490Z,18.73
2023-02-19T11:41:26.059Z,18.64
2023-02-19T11:45:00.547Z,18.90
2023-02-19T11:48:25.124Z,19.05
2023-02-19T11:51:30.593Z,19.45
2023-02-19T11:54:54.616Z,19.53
2023-02-19T11:58:53.921Z,19.70
2023-02-19T12:02:11.533Z,19.84
2023-02-19T12:05:17.346Z,19.89
2023-02-19T12:08:34.944Z,19.75
2023-02-19T12:12:05.204Z,19.86
2023-02-19T12:15:25.351Z,20.00
2023-02-19T12:18:42.775Z,20.06
2023-02-19T12:22:13.315Z,20.18
2023-02-19T12:25:53.906Z,20.22
2023-02-19T12:29:18.484Z,20.15
2023-02-19T12:32:30.811Z,19.81
2023-02-19T12:35:36.849Z,19.89
2023-02-19T12:38:45.206Z,19.83
2023-02-19T12:41:59.777Z,19.64
2023-02-19T12:45:17.806Z,19.82
2023-02-19T12:48:53.496Z,19.96
2023-02-19T12:52:00.469Z,20.07
2023-02-19T12:55:19.661Z,20.12
2023-02-19T12:58:48.908Z,19.12
2023-02-19T13:02:04.827Z,18.41
2023-02-19T13:05:13.701Z,17.83
2023-02-19T13:08:22.894Z,17.09
2023-02-19T13:11:36.784Z,16.52
2023-02-19T13:15:13.715Z,16.07
2023-02-19T13:18:24.293Z,15.87
2023-02-19T13:21:50.310Z,16.56
2023-02-19T13:24:55.440Z,17.47
2023-02-19T13:28:02.923Z,17.81
2023-02-19T13:31:15.347Z,18.31
2023-02-19T13:34:31.601Z,19.08
2023-02-19T13:37:35.334Z,19.54
2023-02-19T13:40:42.373Z,19.53
2023-02-19T13:43:47.031Z,19.03
2023-02-19T13:46:50.851Z,18.62
2023-02-19T13:50:06.670Z,17.84
2023-02-19T13:53:48.031Z,17.18
2023-02-19T13:57:10.758Z,16.59
2023-02-19T14:00:58.081Z,15.98
2023-02-19T14:04:18.593Z,15.42
2023-02-19T14:07:50.345Z,14.92
2023-02-19T14:10:58.041Z,14.67
2023-02-19T14:14:06.652Z,14.22
2023-02-19T14:17:09.406Z,14.14
2023-02-19T14:20:17.858Z,14.04
2023-02-19T14:23:24.358Z,13.91
2023-02-19T14:26:27.698Z,13.71
2023-02-19T14:29:30.414Z,13.71
2023-02-19T14:32:32.776Z,13.62
2023-02-19T14:35:40.131Z,13.53
2023-02-19T14:38:48.786Z,13.52
2023-02-19T14:41:59.057Z,13.30
2023-02-19T14:45:06.475Z,13.50
2023-02-19T14:48:19.594Z,13.51
2023-02-19T14:51:28.511Z,13.37
2023-02-19T14:54:49.673Z,13.41
2023-02-19T14:57:54.546Z,13.47
2023-02-19T15:00:57.510Z,13.40
2023-02-19T15:03:59.827Z,13.30
2023-02-19T15:07:07.590Z,13.25
2023-02-19T15:10:13.229Z,13.12
2023-02-19T15:13:28.420Z,13.13
2023-02-19T15:16:32.695Z,12.97
2023-02-19T15:19:39.568Z,12.77
2023-02-19T15:22:42.076Z,12.63
2023-02-19T15:25:44.760Z,12.62
2023-02-19T15:28:47.345Z,12.56
2023-02-19T15:31:56.175Z,12.61
2023-02-19T15:35:00.458Z,12.55
2023-02-19T15:38:03.125Z,12.37
2023-02-19T15:41:05.899Z,12.40
2023-02-19T15:44:29.249Z,12.37
2023-02-19T15:48:00.674Z,12.12
2023-02-19T15:51:12.090Z,12.16
2023-02-19T15:54:38.938Z,12.11
2023-02-19T15:57:47.228Z,12.03
2023-02-19T16:00:56.498Z,11.80
2023-02-19T16:03:59.380Z,11.92
2023-02-19T16:07:03.763Z,11.76
2023-02-19T16:10:20.390Z,11.80
2023-02-19T16:13:27.972Z,11.79
2023-02-19T16:16:38.530Z,11.75
2023-02-19T16:19:43.865Z,11.69
2023-02-19T16:22:46.620Z,11.70
2023-02-19T16:26:02.463Z,11.50
2023-02-19T16:29:13.246Z,11.60
2023-02-19T16:32:17.251Z,11.58
2023-02-19T16:35:37.491Z,11.52
2023-02-19T16:38:39.879Z,11.42
2023-02-19T16:41:47.771Z,11.45
2023-02-19T16:44:50.148Z,11.57
2023-02-19T16:47:52.757Z,11.46
2023-02-19T16:50:55.870Z,11.40
2023-02-19T16:53:58.512Z,11.29
2023-02-19T16:57:00.954Z,11.26
2023-02-19T17:00:04.106Z,11.21
2023-02-19T17:03:19.808Z,11.04
2023-02-19T17:06:22.433Z,10.91
2023-02-19T17:09:24.814Z,10.86
2023-02-19T17:12:27.470Z,10.96
2023-02-19T17:15:29.814Z,10.89
2023-02-19T17:18:32.668Z,10.70
2023-02-19T17:21:34.996Z,10.65
2023-02-19T17:24:37.683Z,10.56
2023-02-19T17:27:41.451Z,10.55
2023-02-19T17:30:44.282Z,10.65
2023-02-19T17:33:47.077Z,10.64
2023-02-19T17:36:49.872Z,10.53
2023-02-19T17:39:52.267Z,10.67
2023-02-19T17:42:55.345Z,10.64
2023-02-19T17:45:58.108Z,10.62
2023-02-19T17:49:15.403Z,10.47
2023-02-19T17:52:19.793Z,10.62
2023-02-19T17:55:22.981Z,10.61
2023-02-19T17:58:25.555Z,10.62
2023-02-19T18:01:30.257Z,10.47
2023-02-19T18:04:35.563Z,10.51
2023-02-19T18:07:39.245Z,10.44
2023-02-19T18:10:41.968Z,10.46
2023-02-19T18:13:44.775Z,10.48
2023-02-19T18:16:50.246Z,10.50
2023-02-19T18:19:53.545Z,10.56
2023-02-19T18:22:57.116Z,10.54
2023-02-19T18:25:59.946Z,10.50
2023-02-19T18:29:03.026Z,10.05
2023-02-19T18:32:08.250Z,10.34
2023-02-19T18:35:11.262Z,10.41
2023-02-19T18:38:16.387Z,10.28
2023-02-19T18:41:21.240Z,10.43
2023-02-19T18:44:25.309Z,10.40
2023-02-19T18:47:28.134Z,10.42
2023-02-19T18:50:30.748Z,10.39
2023-02-19T18:53:33.626Z,10.33
2023-02-19T18:56:43.879Z,10.35
2023-02-19T18:59:46.778Z,10.35
2023-02-19T19:02:51.278Z,10.22
2023-02-19T19:05:55.202Z,10.29
2023-02-19T19:09:02.386Z,10.32
2023-02-19T19:12:14.965Z,10.16
2023-02-19T19:15:18.601Z,10.24
2023-02-19T19:18:25.211Z,10.32
2023-02-19T19:21:28.079Z,10.36
2023-02-19T19:24:31.255Z,10.27
2023-02-19T19:27:33.700Z,10.21
2023-02-19T19:30:36.790Z,9.93
2023-02-19T19:33:39.876Z,10.06
2023-02-19T19:36:43.763Z,10.03
2023-02-19T19:39:46.334Z,10.04
2023-02-19T19:42:52.294Z,9.91
2023-02-19T19:45:55.777Z,9.71
2023-02-19T19:48:58.586Z,9.78
2023-02-19T19:52:01.367Z,9.75
2023-02-19T19:55:04.860Z,9.79
2023-02-19T19:58:07.440Z,9.77
2023-02-19T20:01:10.746Z,9.69
2023-02-19T20:04:13.873Z,9.57
2023-02-19T20:07:17.232Z,9.50
2023-02-19T20:10:20.286Z,9.58
2023-02-19T20:13:24.526Z,9.57
2023-02-19T20:16:29.008Z,9.42
2023-02-19T20:19:34.358Z,9.60
2023-02-19T20:22:42.178Z,9.60
2023-02-19T20:25:44.700Z,9.55
2023-02-19T20:28:47.609Z,9.57
2023-02-19T20:31:51.530Z,9.41
2023-02-19T20:34:54.333Z,9.36
2023-02-19T20:37:56.896Z,9.38
2023-02-19T20:40:59.663Z,9.51
2023-02-19T20:44:03.423Z,9.40
2023-02-19T20:47:08.232Z,9.67
2023-02-19T20:50:11.201Z,9.64
2023-02-19T20:53:14.180Z,9.69
2023-02-19T20:56:19.269Z,9.66
2023-02-19T20:59:27.345Z,9.57
2023-02-19T21:02:31.843Z,8.86
2023-02-19T21:05:37.872Z,9.15
2023-02-19T21:08:40.432Z,9.45
2023-02-19T21:11:44.414Z,9.46
2023-02-19T21:14:47.226Z,9.25
2023-02-19T21:17:50.221Z,9.25
2023-02-19T21:20:52.779Z,9.26
2023-02-19T21:23:59.247Z,9.31
2023-02-19T21:27:03.662Z,8.67
2023-02-19T21:30:07.188Z,8.59
2023-02-19T21:33:09.705Z,9.06
2023-02-19T21:36:13.020Z,8.81
2023-02-19T21:39:19.899Z,8.64
2023-02-19T21:42:22.672Z,8.78
2023-02-19T21:45:25.274Z,8.43
2023-02-19T21:48:28.167Z,7.92
2023-02-19T21:51:41.854Z,8.40
2023-02-19T21:54:44.524Z,8.33
2023-02-19T21:57:46.840Z,7.99
2023-02-19T22:00:49.553Z,8.10
2023-02-19T22:03:52.347Z,8.04
2023-02-19T22:06:57.894Z,7.89
2023-02-19T22:10:00.677Z,7.84
2023-02-19T22:13:03.190Z,7.79
2023-02-19T22:16:06.473Z,7.75
2023-02-19T22:19:09.973Z,7.49
2023-02-19T22:22:13.179Z,7.66
2023-02-19T22:25:15.757Z,7.59
2023-02-19T22:28:18.459Z,7.36
2023-02-19T22:31:25.369Z,7.54
2023-02-19T22:34:28.447Z,7.25
2023-02-19T22:37:32.368Z,7.00
2023-02-19T22:40:35.284Z,7.25
2023-02-19T22:43:40.870Z,7.07
2023-02-19T22:46:52.978Z,7.18
2023-02-19T22:49:55.508Z,7.16
2023-02-19T22:52:58.842Z,6.80
2023-02-19T22:56:01.226Z,7.18
2023-02-19T22:59:04.333Z,7.12
2023-02-19T23:02:06.831Z,7.14
2023-02-19T23:05:12.130Z,7.08
2023-02-19T23:08:14.505Z,7.14
2023-02-19T23:11:26.948Z,7.04
2023-02-19T23:14:29.570Z,7.05
2023-02-19T23:17:32.745Z,6.98
2023-02-19T23:20:35.648Z,6.80
2023-02-19T23:23:43.902Z,6.88
2023-02-19T23:26:51.825Z,6.93
2023-02-19T23:29:55.836Z,6.90
2023-02-19T23:32:58.298Z,6.63
2023-02-19T23:36:01.307Z,6.81
2023-02-19T23:39:04.268Z,6.66
2023-02-19T23:42:06.904Z,6.72
2023-02-19T23:45:21.159Z,6.36
2023-02-19T23:48:24.003Z,6.70
2023-02-19T23:51:29.265Z,6.72
2023-02-19T23:54:35.068Z,6.69
2023-02-19T23:57:37.529Z,6.56
